sensor_id;sensor_type;location;lat;lon;timestamp;P1;durP1;ratioP1;P2;durP2;ratioP2
46863;SDS011;32598;50.204;6.408;2023-05-15T18:54:02;18.27;;;11.10;;
46863;SDS011;32598;50.204;6.408;2023-05-15T22:02:38;9.18;;;6.72;;
46863;SDS011;32598;50.204;6.408;2023-05-15T22:05:03;10.02;;;6.90;;
46863;SDS011;32598;50.204;6.408;2023-05-15T22:07:28;11.45;;;6.68;;
46863;SDS011;32598;50.204;6.408;2023-05-15T22:09:54;10.83;;;7.33;;
46863;SDS011;32598;50.204;6.408;2023-05-15T22:12:19;11.25;;;7.32;;
46863;SDS011;32598;50.204;6.408;2023-05-15T22:14:45;10.27;;;7.50;;
46863;SDS011;32598;50.204;6.408;2023-05-15T22:17:10;10.70;;;7.40;;
46863;SDS011;32598;50.204;6.408;2023-05-15T22:19:36;11.57;;;7.60;;
46863;SDS011;32598;50.204;6.408;2023-05-15T22:22:01;13.52;;;8.07;;
46863;SDS011;32598;50.204;6.408;2023-05-15T22:24:28;9.52;;;6.88;;
46863;SDS011;32598;50.204;6.408;2023-05-15T22:26:53;8.80;;;6.45;;
46863;SDS011;32598;50.204;6.408;2023-05-15T22:29:18;9.70;;;6.43;;
46863;SDS011;32598;50.204;6.408;2023-05-15T22:31:43;9.30;;;5.90;;
46863;SDS011;32598;50.204;6.408;2023-05-15T22:34:09;11.57;;;6.07;;
46863;SDS011;32598;50.204;6.408;2023-05-15T22:36:34;8.45;;;5.20;;
46863;SDS011;32598;50.204;6.408;2023-05-15T22:39:00;12.13;;;5.85;;
46863;SDS011;32598;50.204;6.408;2023-05-15T22:41:26;9.77;;;5.40;;
46863;SDS011;32598;50.204;6.408;2023-05-15T22:43:51;8.63;;;5.70;;
46863;SDS011;32598;50.204;6.408;2023-05-15T22:46:16;11.10;;;5.20;;
46863;SDS011;32598;50.204;6.408;2023-05-15T22:48:42;8.33;;;4.67;;
46863;SDS011;32598;50.204;6.408;2023-05-15T22:51:07;8.70;;;4.67;;
46863;SDS011;32598;50.204;6.408;2023-05-15T22:53:32;7.57;;;3.90;;
46863;SDS011;32598;50.204;6.408;2023-05-15T22:55:57;7.22;;;4.22;;
46863;SDS011;32598;50.204;6.408;2023-05-15T22:58:23;6.43;;;4.10;;
46863;SDS011;32598;50.204;6.408;2023-05-15T23:00:48;9.63;;;3.87;;
46863;SDS011;32598;50.204;6.408;2023-05-15T23:03:13;6.28;;;3.95;;
46863;SDS011;32598;50.204;6.408;2023-05-15T23:05:38;7.65;;;3.83;;
46863;SDS011;32598;50.204;6.408;2023-05-15T23:08:04;7.97;;;3.83;;
46863;SDS011;32598;50.204;6.408;2023-05-15T23:10:29;7.90;;;3.67;;
46863;SDS011;32598;50.204;6.408;2023-05-15T23:12:54;6.53;;;3.40;;
46863;SDS011;32598;50.204;6.408;2023-05-15T23:15:20;8.87;;;3.90;;
46863;SDS011;32598;50.204;6.408;2023-05-15T23:17:45;6.60;;;3.75;;
46863;SDS011;32598;50.204;6.408;2023-05-15T23:20:10;6.93;;;3.13;;
46863;SDS011;32598;50.204;6.408;2023-05-15T23:22:36;5.35;;;2.97;;
46863;SDS011;32598;50.204;6.408;2023-05-15T23:25:03;8.35;;;3.25;;
46863;SDS011;32598;50.204;6.408;2023-05-15T23:27:28;6.18;;;2.90;;
46863;SDS011;32598;50.204;6.408;2023-05-15T23:29:53;6.18;;;2.47;;
46863;SDS011;32598;50.204;6.408;2023-05-15T23:32:18;5.00;;;2.47;;
46863;SDS011;32598;50.204;6.408;2023-05-15T23:34:43;7.23;;;2.70;;
46863;SDS011;32598;50.204;6.408;2023-05-15T23:37:09;6.78;;;2.80;;
46863;SDS011;32598;50.204;6.408;2023-05-15T23:39:34;6.30;;;3.13;;
46863;SDS011;32598;50.204;6.408;2023-05-15T23:42:00;4.65;;;2.63;;
46863;SDS011;32598;50.204;6.408;2023-05-15T23:44:25;5.93;;;2.92;;
46863;SDS011;32598;50.204;6.408;2023-05-15T23:46:50;6.70;;;3.40;;
46863;SDS011;32598;50.204;6.408;2023-05-15T23:49:15;6.47;;;3.45;;
46863;SDS011;32598;50.204;6.408;2023-05-15T23:51:40;6.00;;;3.30;;
46863;SDS011;32598;50.204;6.408;2023-05-15T23:54:07;8.10;;;3.50;;
46863;SDS011;32598;50.204;6.408;2023-05-15T23:56:32;6.57;;;3.40;;
46863;SDS011;32598;50.204;6.408;2023-05-15T23:58:57;6.93;;;3.87;;
